Time;durP1;ratioP1;P1;durP2;ratioP2;P2;SDS_P1;SDS_P2;PMS_P1;PMS_P2;Temp;Humidity;BMP_temperature;BMP_pressure;BME280_temperature;BME280_humidity;BME280_pressure;Samples;Min_cycle;Max_cycle;Signal;HPM_P1;HPM_P2
2021/07/12 00:01:18;;;;;;;;;;;;;;;;;;5055472;28;1204;-84
2021/07/12 00:03:49;;;;;;;;;;;;;;;;;;5054633;28;1410;-84
2021/07/12 00:06:24;;;;;;;;;;;;;;;;;;5054539;28;1284;-84
2021/07/12 00:08:57;;;;;;;;;;;;;;;;;;5054418;28;1941;-84
2021/07/12 00:11:24;;;;;;;;;;;;;;;;;;5054885;28;1210;-85
2021/07/12 00:13:51;;;;;;;;;;;;;;;;;;5055817;28;803;-85
2021/07/12 00:16:28;;;;;;;;;;;;;;;;;;5054254;28;1222;-83
2021/07/12 00:18:53;;;;;;;;;;;;;;;;;;5057871;28;1598;-85
2021/07/12 00:21:18;;;;;;;;;;;;;;;;;;5057642;28;1192;-84
2021/07/12 00:23:50;;;;;;;;;;;;;;;;;;5057565;28;1218;-84
2021/07/12 00:26:27;;;;;;;;;;;;;;;;;;5057628;28;1212;-84
2021/07/12 00:28:53;;;;;;;;;;;;;;;;;;5074707;28;1906;-84
2021/07/12 00:31:24;;;;;;;;;;;;;;;;;;5075666;28;929;-85
2021/07/12 00:33:55;;;;;;;;;;;;;;;;;;5056533;28;1226;-85
2021/07/12 00:36:31;;;;;;;;;;;;;;;;;;5057574;28;1325;-84
2021/07/12 00:38:57;;;;;;;;;;;;;;;;;;5075690;28;837;-84
2021/07/12 00:41:22;;;;;;;;;;;;;;;;;;5057601;28;1451;-84
2021/07/12 00:46:47;;;;;;;;;;;;;;;;;;4994100;28;1083;-85
2021/07/12 00:49:13;;;;;;;;;;;;;;;;;;4992709;28;1879;-84
2021/07/12 00:51:39;;;;;;;;;;;;;;;;;;4993499;28;930;-83
2021/07/12 00:54:05;;;;;;;;;;;;;;;;;;4994045;28;930;-83
2021/07/12 00:56:31;;;;;;;;;;;;;;;;;;4994095;28;1087;-84
2021/07/12 00:58:58;;;;;;;;;;;;;;;;;;4994109;28;878;-85
2021/07/12 01:01:41;;;;;;;;;;;;;;;;;;4994022;28;1236;-84
2021/07/12 01:04:08;;;;;;;;;;;;;;;;;;4993931;28;954;-84
2021/07/12 01:06:34;;;;;;;;;;;;;;;;;;4994126;28;1013;-84
2021/07/12 01:09:17;;;;;;;;;;;;;;;;;;4993805;28;1938;-83
2021/07/12 01:11:43;;;;;;;;;;;;;;;;;;4993918;28;1370;-84
2021/07/12 01:14:09;;;;;;;;;;;;;;;;;;4996861;28;1225;-85
2021/07/12 01:16:34;;;;;;;;;;;;;;;;;;4996574;28;1028;-85
2021/07/12 01:18:59;;;;;;;;;;;;;;;;;;4997445;28;1396;-84
2021/07/12 01:23:55;;;;;;;;;;;;;;;;;;5039132;28;791;-84
2021/07/12 01:26:20;;;;;;;;;;;;;;;;;;5037520;28;1208;-85
2021/07/12 01:28:51;;;;;;;;;;;;;;;;;;5037533;28;1965;-85
2021/07/12 01:37:10;;;;;;;;;;;;;;;;;;4978105;28;693;-84
2021/07/12 01:39:45;;;;;;;;;;;;;;;;;;4976617;28;1174;-84
2021/07/12 01:42:10;;;;;;;;;;;;;;;;;;4976717;28;1414;-86
2021/07/12 01:44:37;;;;;;;;;;;;;;;;;;4977472;28;1206;-84
2021/07/12 01:47:03;;;;;;;;;;;;;;;;;;4977518;28;1209;-85
2021/07/12 01:49:29;;;;;;;;;;;;;;;;;;4977544;28;1940;-85
2021/07/12 01:52:08;;;;;;;;;;;;;;;;;;4977503;28;1249;-84
2021/07/12 01:54:34;;;;;;;;;;;;;;;;;;4974174;28;1240;-83
2021/07/12 01:57:00;;;;;;;;;;;;;;;;;;4976577;28;1145;-84
2021/07/12 01:59:34;;;;;;;;;;;;;;;;;;4977240;28;1286;-85
2021/07/12 02:01:59;;;;;;;;;;;;;;;;;;4977309;28;1343;-84
2021/07/12 02:04:27;;;;;;;;;;;;;;;;;;4977271;28;1312;-86
2021/07/12 02:12:45;;;;;;;;;;;;;;;;;;5016107;28;642;-85
2021/07/12 02:15:16;;;;;;;;;;;;;;;;;;4999648;28;1193;-84
2021/07/12 02:17:41;;;;;;;;;;;;;;;;;;4999020;28;1236;-85
2021/07/12 02:20:06;;;;;;;;;;;;;;;;;;4999791;28;1294;-85
2021/07/12 02:25:11;;;;;;;;;;;;;;;;;;5015993;28;1083;-84
2021/07/12 02:27:38;;;;;;;;;;;;;;;;;;4998644;28;1152;-83
2021/07/12 02:30:05;;;;;;;;;;;;;;;;;;4999235;28;1906;-84
2021/07/12 02:32:31;;;;;;;;;;;;;;;;;;5015214;28;1025;-84
2021/07/12 02:35:06;;;;;;;;;;;;;;;;;;5015618;28;909;-85
2021/07/12 02:37:42;;;;;;;;;;;;;;;;;;4999321;28;1270;-84
2021/07/12 02:40:08;;;;;;;;;;;;;;;;;;4998407;28;1368;-83
2021/07/12 02:42:35;;;;;;;;;;;;;;;;;;4996564;28;1183;-81
2021/07/12 02:45:13;;;;;;;;;;;;;;;;;;5000307;28;1329;-82
2021/07/12 02:47:50;;;;;;;;;;;;;;;;;;5055147;28;1266;-83
2021/07/12 02:50:22;;;;;;;;;;;;;;;;;;5055818;28;1948;-83
2021/07/12 02:52:47;;;;;;;;;;;;;;;;;;5056004;28;1336;-83
2021/07/12 02:55:13;;;;;;;;;;;;;;;;;;5057188;28;921;-82
2021/07/12 02:57:38;;;;;;;;;;;;;;;;;;5055855;28;1163;-82
2021/07/12 03:00:17;;;;;;;;;;;;;;;;;;5055850;28;1230;-84
2021/07/12 03:02:44;;;;;;;;;;;;;;;;;;5055754;28;1311;-83
2021/07/12 03:07:55;;;;;;;;;;;;;;;;;;5056939;28;612;-83
2021/07/12 03:13:04;;;;;;;;;;;;;;;;;;5056785;28;664;-83
2021/07/12 03:15:45;;;;;;;;;;;;;;;;;;5056594;28;826;-83
2021/07/12 03:18:10;;;;;;;;;;;;;;;;;;5054586;28;1320;-84
2021/07/12 03:20:35;;;;;;;;;;;;;;;;;;5056611;28;787;-83
2021/07/12 03:23:01;;;;;;;;;;;;;;;;;;5054504;28;1399;-82
2021/07/12 03:28:28;;;;;;;;;;;;;;;;;;5034408;28;763;-82
2021/07/12 03:31:08;;;;;;;;;;;;;;;;;;5034521;28;1969;-83
2021/07/12 03:33:34;;;;;;;;;;;;;;;;;;5034476;28;1270;-83
2021/07/12 03:35:59;;;;;;;;;;;;;;;;;;5034160;28;1024;-83
2021/07/12 03:38:25;;;;;;;;;;;;;;;;;;5034322;28;1176;-83
2021/07/12 03:41:11;;;;;;;;;;;;;;;;;;5034324;28;917;-83
2021/07/12 03:43:38;;;;;;;;;;;;;;;;;;5036497;28;1192;-82
2021/07/12 03:46:14;;;;;;;;;;;;;;;;;;5053357;28;1174;-82
2021/07/12 03:48:39;;;;;;;;;;;;;;;;;;5054043;28;1433;-83
2021/07/12 03:51:06;;;;;;;;;;;;;;;;;;5054257;28;1882;-83
2021/07/12 03:53:43;;;;;;;;;;;;;;;;;;5053980;28;1336;-83
2021/07/12 03:56:08;;;;;;;;;;;;;;;;;;5054050;28;1176;-83
2021/07/12 03:58:34;;;;;;;;;;;;;;;;;;5054142;28;944;-82
2021/07/12 04:03:43;;;;;;;;;;;;;;;;;;5036280;28;640;-89
2021/07/12 04:06:25;;;;;;;;;;;;;;;;;;5035159;28;1210;-88
2021/07/12 04:14:32;;;;;;;;;;;;;;;;;;5035923;28;604;-89
2021/07/12 04:16:59;;;;;;;;;;;;;;;;;;5034827;28;1374;-87
2021/07/12 04:19:24;;;;;;;;;;;;;;;;;;5052617;28;1167;-88
2021/07/12 04:24:43;;;;;;;;;;;;;;;;;;5055878;28;649;-89
2021/07/12 04:27:15;;;;;;;;;;;;;;;;;;5054629;28;1201;-89
2021/07/12 04:32:24;;;;;;;;;;;;;;;;;;5055674;28;590;-89
2021/07/12 04:37:34;;;;;;;;;;;;;;;;;;5055541;28;680;-89
2021/07/12 04:42:52;;;;;;;;;;;;;;;;;;5055528;28;565;-88
2021/07/12 04:50:30;;;;;;;;;;;;;;;;;;5059025;28;1894;-89
2021/07/12 04:58:44;;;;;;;;;;;;;;;;;;5059689;28;653;-88
2021/07/12 05:01:21;;;;;;;;;;;;;;;;;;5058317;28;1183;-88
2021/07/12 05:03:46;;;;;;;;;;;;;;;;;;5058168;28;1177;-89
2021/07/12 05:08:57;;;;;;;;;;;;;;;;;;5058405;28;1878;-91
2021/07/12 05:14:07;;;;;;;;;;;;;;;;;;5058983;28;1073;-89
2021/07/12 05:19:16;;;;;;;;;;;;;;;;;;5063125;28;1112;-89
2021/07/12 05:24:45;;;;;;;;;;;;;;;;;;5016928;28;1084;-90
2021/07/12 05:27:21;;;;;;;;;;;;;;;;;;5000053;28;1280;-90
2021/07/12 05:29:55;;;;;;;;;;;;;;;;;;5000577;28;1894;-90
2021/07/12 05:48:42;;;;;;;;;;;;;;;;;;5016999;28;935;-89
2021/07/12 05:51:07;;;;;;;;;;;;;;;;;;5015944;28;1899;-89
2021/07/12 05:59:24;;;;;;;;;;;;;;;;;;4977071;28;1103;-90
2021/07/12 06:02:05;;;;;;;;;;;;;;;;;;4997426;28;1186;-89
2021/07/12 06:07:49;;;;;;;;;;;;;;;;;;4977567;28;748;-90
2021/07/12 06:15:44;;;;;;;;;;;;;;;;;;4977422;28;1000;-91
2021/07/12 06:20:53;;;;;;;;;;;;;;;;;;4976401;28;1191;-90
2021/07/12 06:26:01;;;;;;;;;;;;;;;;;;4977057;28;646;-90
2021/07/12 06:28:48;;;;;;;;;;;;;;;;;;4960609;28;1324;-90
2021/07/12 06:31:31;;;;;;;;;;;;;;;;;;4977081;28;1978;-90
2021/07/12 06:36:58;;;;;;;;;;;;;;;;;;4996421;28;661;-86
2021/07/12 06:39:23;;;;;;;;;;;;;;;;;;4980020;28;1768;-86
2021/07/12 06:44:32;;;;;;;;;;;;;;;;;;5057324;28;608;-90
2021/07/12 06:49:41;;;;;;;;;;;;;;;;;;5057202;28;1875;-91
2021/07/12 06:55:06;;;;;;;;;;;;;;;;;;5046237;28;864;-91
2021/07/12 07:03:15;;;;;;;;;;;;;;;;;;5043527;28;1461;-85
2021/07/12 07:05:55;;;;;;;;;;;;;;;;;;5037003;28;842;-84
2021/07/12 07:08:22;;;;;;;;;;;;;;;;;;5035720;28;1392;-85
2021/07/12 07:10:57;;;;;;;;;;;;;;;;;;5034484;28;1883;-81
2021/07/12 07:13:23;;;;;;;;;;;;;;;;;;5036492;28;889;-81
2021/07/12 07:15:49;;;;;;;;;;;;;;;;;;5035798;28;1211;-80
2021/07/12 07:18:20;;;;;;;;;;;;;;;;;;5054862;28;1193;-81
2021/07/12 07:20:45;;;;;;;;;;;;;;;;;;5054357;28;1244;-81
2021/07/12 07:23:11;;;;;;;;;;;;;;;;;;5055607;28;1355;-80
2021/07/12 07:25:38;;;;;;;;;;;;;;;;;;5056482;28;818;-81
2021/07/12 07:28:23;;;;;;;;;;;;;;;;;;5055085;28;1233;-80
2021/07/12 07:30:50;;;;;;;;;;;;;;;;;;5056609;28;1906;-80
2021/07/12 07:36:38;;;;;;;;;;;;;;;;;;5034305;28;736;-81
2021/07/12 07:39:05;;;;;;;;;;;;;;;;;;5034005;28;1279;-81
2021/07/12 07:41:47;;;;;;;;;;;;;;;;;;5034320;28;1013;-81
2021/07/12 07:44:14;;;;;;;;;;;;;;;;;;5034030;28;1216;-81
2021/07/12 07:46:39;;;;;;;;;;;;;;;;;;5033811;28;1212;-80
2021/07/12 07:49:07;;;;;;;;;;;;;;;;;;5034004;28;1886;-80
2021/07/12 07:51:32;;;;;;;;;;;;;;;;;;5033986;28;1234;-81
2021/07/12 07:53:58;;;;;;;;;;;;;;;;;;5033976;28;1211;-81
2021/07/12 07:56:25;;;;;;;;;;;;;;;;;;5034056;28;964;-81
2021/07/12 07:58:51;;;;;;;;;;;;;;;;;;5033846;28;1266;-81
2021/07/12 08:01:18;;;;;;;;;;;;;;;;;;5033835;28;1260;-84
2021/07/12 08:03:52;;;;;;;;;;;;;;;;;;5034062;28;1347;-85
2021/07/12 08:06:25;;;;;;;;;;;;;;;;;;5034274;28;1297;-85
2021/07/12 08:14:29;;;;;;;;;;;;;;;;;;5053717;28;1057;-85
2021/07/12 08:17:06;;;;;;;;;;;;;;;;;;5053883;28;1183;-84
2021/07/12 08:19:31;;;;;;;;;;;;;;;;;;5053494;28;1226;-87
2021/07/12 08:21:56;;;;;;;;;;;;;;;;;;5034543;28;1625;-85
2021/07/12 08:27:11;;;;;;;;;;;;;;;;;;5035504;28;688;-87
2021/07/12 08:29:38;;;;;;;;;;;;;;;;;;5034831;28;1906;-85
2021/07/12 08:32:04;;;;;;;;;;;;;;;;;;5034880;28;1004;-86
2021/07/12 08:35:03;;;;;;;;;;;;;;;;;;5044317;28;1247;-86
2021/07/12 08:37:33;;;;;;;;;;;;;;;;;;5051388;28;1091;-88
2021/07/12 08:39:58;;;;;;;;;;;;;;;;;;5055050;28;1413;-86
2021/07/12 08:45:16;;;;;;;;;;;;;;;;;;5055332;28;582;-87
2021/07/12 08:47:58;;;;;;;;;;;;;;;;;;5055041;28;1327;-86
2021/07/12 08:50:29;;;;;;;;;;;;;;;;;;5040009;28;1886;-87
2021/07/12 08:52:54;;;;;;;;;;;;;;;;;;5021696;28;1437;-87
2021/07/12 08:55:29;;;;;;;;;;;;;;;;;;5036170;28;1456;-86
2021/07/12 08:58:03;;;;;;;;;;;;;;;;;;5034543;28;1670;-84
2021/07/12 09:00:30;;;;;;;;;;;;;;;;;;5041686;28;1263;-85
2021/07/12 09:03:02;;;;;;;;;;;;;;;;;;5015290;28;1268;-85
2021/07/12 09:05:37;;;;;;;;;;;;;;;;;;5017321;28;1470;-87
2021/07/12 09:10:47;;;;;;;;;;;;;;;;;;5016362;28;1948;-86
2021/07/12 09:13:13;;;;;;;;;;;;;;;;;;5017857;28;1208;-86
2021/07/12 09:15:51;;;;;;;;;;;;;;;;;;5034791;28;914;-86
2021/07/12 09:18:27;;;;;;;;;;;;;;;;;;5029653;28;1340;-87
2021/07/12 09:20:52;;;;;;;;;;;;;;;;;;5047438;28;1232;-87
2021/07/12 09:23:37;;;;;;;;;;;;;;;;;;5055002;28;1502;-88
2021/07/12 09:28:39;;;;;;;;;;;;;;;;;;5053492;28;1263;-87
2021/07/12 09:31:10;;;;;;;;;;;;;;;;;;5051046;28;1969;-87
2021/07/12 09:33:48;;;;;;;;;;;;;;;;;;5055093;28;1313;-86
2021/07/12 09:39:04;;;;;;;;;;;;;;;;;;5055478;28;1375;-88
2021/07/12 09:41:38;;;;;;;;;;;;;;;;;;5071528;28;1195;-87
2021/07/12 09:44:05;;;;;;;;;;;;;;;;;;5055558;28;1223;-87
2021/07/12 09:46:30;;;;;;;;;;;;;;;;;;5057411;28;1290;-86
2021/07/12 09:49:05;;;;;;;;;;;;;;;;;;5056402;28;1354;-86
2021/07/12 09:51:38;;;;;;;;;;;;;;;;;;5057250;28;1207;-86
2021/07/12 09:54:13;;;;;;;;;;;;;;;;;;5057584;28;977;-86
2021/07/12 09:56:57;;;;;;;;;;;;;;;;;;5056996;28;1168;-87
2021/07/12 09:59:36;;;;;;;;;;;;;;;;;;5057063;28;1300;-86
2021/07/12 10:02:11;;;;;;;;;;;;;;;;;;5056917;28;1377;-86
2021/07/12 10:04:37;;;;;;;;;;;;;;;;;;5056014;28;1385;-86
2021/07/12 10:07:02;;;;;;;;;;;;;;;;;;5056983;28;1162;-86
2021/07/12 10:09:47;;;;;;;;;;;;;;;;;;5056746;28;1871;-87
2021/07/12 10:15:20;;;;;;;;;;;;;;;;;;5014693;28;1025;-87
2021/07/12 10:17:53;;;;;;;;;;;;;;;;;;5015407;28;1200;-88
2021/07/12 10:20:19;;;;;;;;;;;;;;;;;;5014560;28;1078;-86
2021/07/12 10:22:46;;;;;;;;;;;;;;;;;;5012162;28;1317;-87
2021/07/12 10:25:14;;;;;;;;;;;;;;;;;;5028120;28;1330;-87
2021/07/12 10:27:39;;;;;;;;;;;;;;;;;;5015276;28;1266;-86
2021/07/12 10:30:14;;;;;;;;;;;;;;;;;;5014198;28;1919;-86
2021/07/12 10:35:32;;;;;;;;;;;;;;;;;;5012804;28;985;-87
2021/07/12 10:38:17;;;;;;;;;;;;;;;;;;5015531;28;1271;-86
2021/07/12 10:40:44;;;;;;;;;;;;;;;;;;5015785;28;1363;-86
2021/07/12 10:43:09;;;;;;;;;;;;;;;;;;5014257;28;1073;-85
2021/07/12 10:48:29;;;;;;;;;;;;;;;;;;4995404;28;1077;-87
2021/07/12 10:50:54;;;;;;;;;;;;;;;;;;5006906;28;1886;-87
2021/07/12 10:53:20;;;;;;;;;;;;;;;;;;5014901;28;1052;-85
2021/07/12 10:55:47;;;;;;;;;;;;;;;;;;4993490;28;1228;-86
2021/07/12 10:58:14;;;;;;;;;;;;;;;;;;5011913;28;1093;-86
2021/07/12 11:00:50;;;;;;;;;;;;;;;;;;4998093;28;1301;-86
2021/07/12 11:03:16;;;;;;;;;;;;;;;;;;4997082;28;1273;-87
2021/07/12 11:08:27;;;;;;;;;;;;;;;;;;5015241;28;614;-87
2021/07/12 11:11:08;;;;;;;;;;;;;;;;;;5014935;28;1874;-87
2021/07/12 11:13:33;;;;;;;;;;;;;;;;;;5014604;28;1255;-88
2021/07/12 11:15:58;;;;;;;;;;;;;;;;;;5015070;28;1312;-89
2021/07/12 11:18:25;;;;;;;;;;;;;;;;;;5013921;28;1251;-88
2021/07/12 11:20:51;;;;;;;;;;;;;;;;;;4994481;28;1238;-88
2021/07/12 11:26:00;;;;;;;;;;;;;;;;;;5035522;28;1042;-87
2021/07/12 11:34:09;;;;;;;;;;;;;;;;;;4995220;28;1143;-88
2021/07/12 11:36:35;;;;;;;;;;;;;;;;;;5011033;28;1396;-88
2021/07/12 11:39:00;;;;;;;;;;;;;;;;;;4998096;28;1209;-88
2021/07/12 11:44:09;;;;;;;;;;;;;;;;;;5025496;28;1515;-87
2021/07/12 11:46:35;;;;;;;;;;;;;;;;;;5005395;28;1444;-87
2021/07/12 11:49:02;;;;;;;;;;;;;;;;;;5014560;28;1566;-85
2021/07/12 11:51:37;;;;;;;;;;;;;;;;;;5011432;28;1965;-85
2021/07/12 11:54:08;;;;;;;;;;;;;;;;;;5005495;28;1350;-86
2021/07/12 11:56:46;;;;;;;;;;;;;;;;;;4997249;28;1208;-85
2021/07/12 11:59:20;;;;;;;;;;;;;;;;;;4996229;28;1401;-85
2021/07/12 12:01:45;;;;;;;;;;;;;;;;;;4997696;28;1292;-86
2021/07/12 12:04:13;;;;;;;;;;;;;;;;;;5016383;28;1344;-84
2021/07/12 12:06:53;;;;;;;;;;;;;;;;;;5033782;28;1342;-85
2021/07/12 12:09:19;;;;;;;;;;;;;;;;;;5034580;28;1961;-85
2021/07/12 12:11:50;;;;;;;;;;;;;;;;;;5033811;28;1435;-85
2021/07/12 12:14:33;;;;;;;;;;;;;;;;;;5030865;28;1297;-84
2021/07/12 12:19:53;;;;;;;;;;;;;;;;;;4974103;28;1401;-86
2021/07/12 12:22:18;;;;;;;;;;;;;;;;;;4975134;28;1068;-86
2021/07/12 12:24:44;;;;;;;;;;;;;;;;;;4991139;28;1161;-86
2021/07/12 12:27:11;;;;;;;;;;;;;;;;;;4990880;28;1568;-85
2021/07/12 12:29:48;;;;;;;;;;;;;;;;;;4974416;28;1971;-82
2021/07/12 12:32:22;;;;;;;;;;;;;;;;;;4991211;28;1337;-82
2021/07/12 12:34:56;;;;;;;;;;;;;;;;;;4975003;28;901;-83
2021/07/12 12:46:11;;;;;;;;;;;;;;;;;;4955509;29;701;-82
2021/07/12 12:48:38;;;;;;;;;;;;;;;;;;4955415;29;1237;-82
2021/07/12 12:51:04;;;;;;;;;;;;;;;;;;4955346;29;1944;-83
2021/07/12 12:53:31;;;;;;;;;;;;;;;;;;4955171;29;1277;-83
2021/07/12 12:56:11;;;;;;;;;;;;;;;;;;4949262;28;1299;-82
2021/07/12 12:58:36;;;;;;;;;;;;;;;;;;4955310;28;1177;-83
2021/07/12 13:01:10;;;;;;;;;;;;;;;;;;4955268;28;1165;-82
2021/07/12 13:06:22;;;;;;;;;;;;;;;;;;4974522;28;621;-82
2021/07/12 13:08:48;;;;;;;;;;;;;;;;;;4961938;28;1416;-82
2021/07/12 13:11:24;;;;;;;;;;;;;;;;;;4978097;28;1944;-82
2021/07/12 13:13:51;;;;;;;;;;;;;;;;;;4978247;28;1370;-82
2021/07/12 13:16:22;;;;;;;;;;;;;;;;;;4993864;28;1414;-84
2021/07/12 13:19:07;;;;;;;;;;;;;;;;;;5057780;28;1320;-83
2021/07/12 13:21:32;;;;;;;;;;;;;;;;;;5073758;28;1296;-82
2021/07/12 13:24:04;;;;;;;;;;;;;;;;;;5077376;28;1276;-82
2021/07/12 13:26:30;;;;;;;;;;;;;;;;;;5078863;28;928;-83
2021/07/12 13:28:58;;;;;;;;;;;;;;;;;;5077514;28;1194;-83
2021/07/12 13:31:25;;;;;;;;;;;;;;;;;;5078488;28;1907;-84
2021/07/12 13:33:51;;;;;;;;;;;;;;;;;;5061906;28;1556;-83
2021/07/12 13:36:16;;;;;;;;;;;;;;;;;;5037288;28;1281;-82
2021/07/12 13:38:49;;;;;;;;;;;;;;;;;;5045944;28;1636;-83
2021/07/12 13:41:35;;;;;;;;;;;;;;;;;;5053862;28;1362;-83
2021/07/12 13:44:20;;;;;;;;;;;;;;;;;;5037346;28;1231;-82
2021/07/12 13:46:55;;;;;;;;;;;;;;;;;;5038467;28;968;-83
2021/07/12 13:49:35;;;;;;;;;;;;;;;;;;5037017;28;1959;-83
2021/07/12 13:52:07;;;;;;;;;;;;;;;;;;5052561;28;1539;-83
2021/07/12 13:54:33;;;;;;;;;;;;;;;;;;5053577;28;1747;-83
2021/07/12 13:57:06;;;;;;;;;;;;;;;;;;5070680;28;1211;-83
2021/07/12 13:59:46;;;;;;;;;;;;;;;;;;5070323;28;1257;-83
2021/07/12 14:02:12;;;;;;;;;;;;;;;;;;5038158;28;1224;-83
2021/07/12 14:04:43;;;;;;;;;;;;;;;;;;5051149;28;980;-83
2021/07/12 14:07:08;;;;;;;;;;;;;;;;;;5058031;28;893;-83
2021/07/12 14:09:34;;;;;;;;;;;;;;;;;;5058094;28;1898;-83
2021/07/12 14:12:02;;;;;;;;;;;;;;;;;;5057383;28;929;-82
2021/07/12 14:14:45;;;;;;;;;;;;;;;;;;5056682;28;1331;-82
2021/07/12 14:17:11;;;;;;;;;;;;;;;;;;5056558;28;1298;-83
2021/07/12 14:19:39;;;;;;;;;;;;;;;;;;5056055;28;1176;-82
2021/07/12 14:22:04;;;;;;;;;;;;;;;;;;5060744;28;1229;-83
2021/07/12 14:27:32;;;;;;;;;;;;;;;;;;4995613;28;968;-82
2021/07/12 14:30:08;;;;;;;;;;;;;;;;;;4996254;28;1972;-83
2021/07/12 14:32:40;;;;;;;;;;;;;;;;;;4992909;28;1139;-82
2021/07/12 14:35:06;;;;;;;;;;;;;;;;;;4977029;28;1286;-82
2021/07/12 14:37:32;;;;;;;;;;;;;;;;;;4992522;28;1403;-82
2021/07/12 14:40:00;;;;;;;;;;;;;;;;;;4990790;28;1303;-83
2021/07/12 14:42:26;;;;;;;;;;;;;;;;;;4995299;28;973;-83
2021/07/12 14:44:52;;;;;;;;;;;;;;;;;;4995531;28;1216;-82
2021/07/12 14:47:18;;;;;;;;;;;;;;;;;;4995735;28;1322;-82
2021/07/12 14:49:44;;;;;;;;;;;;;;;;;;4995804;28;1891;-82
2021/07/12 14:52:10;;;;;;;;;;;;;;;;;;4995799;28;1020;-83
2021/07/12 14:54:36;;;;;;;;;;;;;;;;;;4994281;28;1287;-82
2021/07/12 15:00:03;;;;;;;;;;;;;;;;;;4995799;28;673;-83
2021/07/12 15:02:46;;;;;;;;;;;;;;;;;;5053451;28;1231;-83
2021/07/12 15:05:28;;;;;;;;;;;;;;;;;;5074875;28;877;-82
2021/07/12 15:08:00;;;;;;;;;;;;;;;;;;5056986;28;1221;-83
2021/07/12 15:10:27;;;;;;;;;;;;;;;;;;5073743;28;1882;-82
2021/07/12 15:13:01;;;;;;;;;;;;;;;;;;5074738;28;928;-82
2021/07/12 15:15:26;;;;;;;;;;;;;;;;;;5074654;28;971;-82
2021/07/12 15:17:51;;;;;;;;;;;;;;;;;;5057883;28;1269;-82
2021/07/12 15:20:16;;;;;;;;;;;;;;;;;;5056355;28;1185;-82
2021/07/12 15:22:41;;;;;;;;;;;;;;;;;;5074580;28;849;-82
2021/07/12 15:25:08;;;;;;;;;;;;;;;;;;5057828;28;1218;-82
2021/07/12 15:27:50;;;;;;;;;;;;;;;;;;5057689;28;1187;-82
2021/07/12 15:30:17;;;;;;;;;;;;;;;;;;5073995;28;1906;-82
2021/07/12 15:32:55;;;;;;;;;;;;;;;;;;5057354;28;1306;-83
2021/07/12 15:35:27;;;;;;;;;;;;;;;;;;5058470;28;1403;-83
2021/07/12 15:37:55;;;;;;;;;;;;;;;;;;5058434;28;1246;-82
2021/07/12 15:40:38;;;;;;;;;;;;;;;;;;5058372;28;1316;-83
2021/07/12 15:45:34;;;;;;;;;;;;;;;;;;5076508;28;831;-83
2021/07/12 15:48:08;;;;;;;;;;;;;;;;;;5076073;28;914;-83
2021/07/12 15:50:35;;;;;;;;;;;;;;;;;;5058073;28;1944;-83
2021/07/12 15:53:11;;;;;;;;;;;;;;;;;;5058135;28;1191;-83
2021/07/12 15:55:38;;;;;;;;;;;;;;;;;;5058129;28;1188;-83
2021/07/12 15:58:10;;;;;;;;;;;;;;;;;;5058010;28;1284;-83
2021/07/12 16:00:35;;;;;;;;;;;;;;;;;;5057337;28;1409;-82
2021/07/12 16:03:06;;;;;;;;;;;;;;;;;;5058044;28;1224;-82
2021/07/12 16:05:31;;;;;;;;;;;;;;;;;;5057766;28;1180;-82
2021/07/12 16:07:58;;;;;;;;;;;;;;;;;;5058016;28;1313;-82
2021/07/12 16:10:36;;;;;;;;;;;;;;;;;;5057811;28;1890;-82
2021/07/12 16:13:02;;;;;;;;;;;;;;;;;;5057955;28;1254;-82
2021/07/12 16:15:37;;;;;;;;;;;;;;;;;;5057749;28;1328;-83
2021/07/12 16:18:03;;;;;;;;;;;;;;;;;;5057756;28;1283;-83
2021/07/12 16:20:28;;;;;;;;;;;;;;;;;;5074928;28;1061;-83
2021/07/12 16:22:53;;;;;;;;;;;;;;;;;;5057721;28;1311;-82
2021/07/12 16:25:25;;;;;;;;;;;;;;;;;;5056202;28;1192;-82
2021/07/12 16:28:03;;;;;;;;;;;;;;;;;;5057068;28;1286;-83
2021/07/12 16:30:38;;;;;;;;;;;;;;;;;;5057596;28;1898;-83
2021/07/12 16:35:42;;;;;;;;;;;;;;;;;;5075872;28;862;-83
2021/07/12 16:38:20;;;;;;;;;;;;;;;;;;5057558;28;1326;-83
2021/07/12 16:40:57;;;;;;;;;;;;;;;;;;5057611;28;1263;-82
2021/07/12 16:43:28;;;;;;;;;;;;;;;;;;5060510;28;1303;-82
2021/07/12 16:46:03;;;;;;;;;;;;;;;;;;5061791;28;1218;-83
2021/07/12 16:48:29;;;;;;;;;;;;;;;;;;5078773;28;913;-82
2021/07/12 16:50:54;;;;;;;;;;;;;;;;;;5078705;28;1878;-82
2021/07/12 16:56:21;;;;;;;;;;;;;;;;;;5017465;28;1104;-82
2021/07/12 16:58:48;;;;;;;;;;;;;;;;;;5001215;28;1268;-82
2021/07/12 17:01:15;;;;;;;;;;;;;;;;;;5001134;28;1387;-82
2021/07/12 17:03:42;;;;;;;;;;;;;;;;;;5001068;28;1344;-83
2021/07/12 17:06:08;;;;;;;;;;;;;;;;;;5000999;28;1184;-82
2021/07/12 17:11:17;;;;;;;;;;;;;;;;;;5017377;28;1882;-82
2021/07/12 17:13:44;;;;;;;;;;;;;;;;;;5000785;28;1217;-83
2021/07/12 17:16:11;;;;;;;;;;;;;;;;;;5000794;28;1326;-83
2021/07/12 17:18:36;;;;;;;;;;;;;;;;;;5000539;28;1212;-82
2021/07/12 17:21:01;;;;;;;;;;;;;;;;;;5000460;28;1261;-83
2021/07/12 17:23:46;;;;;;;;;;;;;;;;;;5000717;28;1271;-83
2021/07/12 17:26:28;;;;;;;;;;;;;;;;;;5017088;28;1064;-82
2021/07/12 17:29:04;;;;;;;;;;;;;;;;;;5000630;28;1301;-82
2021/07/12 17:31:30;;;;;;;;;;;;;;;;;;4999810;28;1973;-82
2021/07/12 17:33:55;;;;;;;;;;;;;;;;;;5051126;28;1164;-82
2021/07/12 17:38:51;;;;;;;;;;;;;;;;;;5058020;28;937;-82
2021/07/12 17:41:22;;;;;;;;;;;;;;;;;;5056407;28;1208;-82
2021/07/12 17:43:47;;;;;;;;;;;;;;;;;;5056747;28;1212;-82
2021/07/12 17:48:51;;;;;;;;;;;;;;;;;;5058794;28;858;-82
2021/07/12 17:51:16;;;;;;;;;;;;;;;;;;5056910;28;1910;-82
2021/07/12 17:53:53;;;;;;;;;;;;;;;;;;5056221;28;1216;-82
2021/07/12 17:56:19;;;;;;;;;;;;;;;;;;5058211;28;912;-83
2021/07/12 17:58:56;;;;;;;;;;;;;;;;;;5058303;28;952;-82
2021/07/12 18:01:32;;;;;;;;;;;;;;;;;;5056971;28;1310;-82
2021/07/12 18:03:58;;;;;;;;;;;;;;;;;;5056926;28;1287;-82
2021/07/12 18:06:42;;;;;;;;;;;;;;;;;;5056838;28;1294;-82
2021/07/12 18:09:09;;;;;;;;;;;;;;;;;;5056672;28;1196;-82
2021/07/12 18:14:10;;;;;;;;;;;;;;;;;;5057206;28;1062;-82
2021/07/12 18:16:40;;;;;;;;;;;;;;;;;;5057148;28;937;-82
2021/07/12 18:19:16;;;;;;;;;;;;;;;;;;5056703;28;1211;-82
2021/07/12 18:21:41;;;;;;;;;;;;;;;;;;5056615;28;1306;-82
2021/07/12 18:24:17;;;;;;;;;;;;;;;;;;5058058;28;822;-82
2021/07/12 18:26:42;;;;;;;;;;;;;;;;;;5056506;28;1406;-82
2021/07/12 18:29:09;;;;;;;;;;;;;;;;;;5057885;28;909;-82
2021/07/12 18:31:37;;;;;;;;;;;;;;;;;;5057631;28;1975;-83
2021/07/12 18:34:03;;;;;;;;;;;;;;;;;;5057570;28;960;-83
2021/07/12 18:36:36;;;;;;;;;;;;;;;;;;5056441;28;1208;-82
2021/07/12 18:39:03;;;;;;;;;;;;;;;;;;5057418;28;952;-82
2021/07/12 18:41:39;;;;;;;;;;;;;;;;;;5056110;28;1301;-82
2021/07/12 18:46:33;;;;;;;;;;;;;;;;;;5057808;28;893;-82
2021/07/12 18:49:13;;;;;;;;;;;;;;;;;;5057397;28;913;-82
2021/07/12 18:51:52;;;;;;;;;;;;;;;;;;5055985;28;1886;-83
2021/07/12 18:54:17;;;;;;;;;;;;;;;;;;5055918;28;1271;-83
2021/07/12 18:56:53;;;;;;;;;;;;;;;;;;5056206;28;1248;-82
2021/07/12 18:59:20;;;;;;;;;;;;;;;;;;5055905;28;1180;-82
2021/07/12 19:01:52;;;;;;;;;;;;;;;;;;5054911;28;1347;-82
2021/07/12 19:04:17;;;;;;;;;;;;;;;;;;5055015;28;1339;-82
2021/07/12 19:06:44;;;;;;;;;;;;;;;;;;5055815;28;1212;-82
2021/07/12 19:09:11;;;;;;;;;;;;;;;;;;5056895;28;945;-82
2021/07/12 19:11:45;;;;;;;;;;;;;;;;;;5055517;28;1895;-82
2021/07/12 19:14:26;;;;;;;;;;;;;;;;;;5055631;28;1340;-82
2021/07/12 19:16:53;;;;;;;;;;;;;;;;;;5055958;28;897;-81
2021/07/12 19:19:30;;;;;;;;;;;;;;;;;;5054753;28;1175;-82
2021/07/12 19:21:55;;;;;;;;;;;;;;;;;;5054586;28;1188;-82
2021/07/12 19:24:31;;;;;;;;;;;;;;;;;;5056660;28;917;-82
2021/07/12 19:26:58;;;;;;;;;;;;;;;;;;5055456;28;1254;-82
2021/07/12 19:29:25;;;;;;;;;;;;;;;;;;5056742;28;949;-82
2021/07/12 19:31:52;;;;;;;;;;;;;;;;;;5056392;28;1891;-82
2021/07/12 19:34:29;;;;;;;;;;;;;;;;;;5055179;28;1151;-82
2021/07/12 19:37:08;;;;;;;;;;;;;;;;;;5055069;28;1192;-81
2021/07/12 19:42:03;;;;;;;;;;;;;;;;;;5056664;28;893;-82
2021/07/12 19:47:14;;;;;;;;;;;;;;;;;;5056364;28;664;-80
2021/07/12 19:49:45;;;;;;;;;;;;;;;;;;5055930;28;1883;-80
2021/07/12 19:52:18;;;;;;;;;;;;;;;;;;5054178;28;1300;-80
2021/07/12 19:54:52;;;;;;;;;;;;;;;;;;5054398;28;1219;-80
2021/07/12 20:03:18;;;;;;;;;;;;;;;;;;4975336;28;1106;-83
2021/07/12 20:05:45;;;;;;;;;;;;;;;;;;4975357;28;1495;-83
2021/07/12 20:08:11;;;;;;;;;;;;;;;;;;4975163;28;1201;-83
2021/07/12 20:10:45;;;;;;;;;;;;;;;;;;4974903;28;1984;-82
2021/07/12 20:13:26;;;;;;;;;;;;;;;;;;4975270;28;1270;-82
2021/07/12 20:15:52;;;;;;;;;;;;;;;;;;4975324;28;1091;-82
2021/07/12 20:18:37;;;;;;;;;;;;;;;;;;4974622;28;1413;-82
2021/07/12 20:21:02;;;;;;;;;;;;;;;;;;4971313;28;1280;-83
2021/07/12 20:23:27;;;;;;;;;;;;;;;;;;4975054;28;1236;-82
2021/07/12 20:25:53;;;;;;;;;;;;;;;;;;4973518;28;997;-83
2021/07/12 20:28:20;;;;;;;;;;;;;;;;;;4975024;28;981;-82
2021/07/12 20:30:46;;;;;;;;;;;;;;;;;;4974850;28;1910;-82
2021/07/12 20:33:12;;;;;;;;;;;;;;;;;;4975136;28;1248;-82
2021/07/12 20:35:46;;;;;;;;;;;;;;;;;;4969890;28;1289;-82
2021/07/12 20:38:13;;;;;;;;;;;;;;;;;;4958779;28;1266;-82
2021/07/12 20:40:55;;;;;;;;;;;;;;;;;;5031247;28;1408;-82
2021/07/12 20:46:24;;;;;;;;;;;;;;;;;;5053552;28;664;-83
2021/07/12 20:48:50;;;;;;;;;;;;;;;;;;5053465;28;1207;-83
2021/07/12 20:51:31;;;;;;;;;;;;;;;;;;5052582;28;1890;-82
2021/07/12 20:53:57;;;;;;;;;;;;;;;;;;5052475;28;1290;-82
2021/07/12 20:56:23;;;;;;;;;;;;;;;;;;5053315;28;1237;-83
2021/07/12 20:58:49;;;;;;;;;;;;;;;;;;5053755;28;946;-83
2021/07/12 21:01:15;;;;;;;;;;;;;;;;;;5053216;28;1157;-83
2021/07/12 21:03:42;;;;;;;;;;;;;;;;;;5053532;28;934;-83
2021/07/12 21:06:10;;;;;;;;;;;;;;;;;;5053223;28;1168;-83
2021/07/12 21:08:37;;;;;;;;;;;;;;;;;;5053459;28;953;-83